sensor_id;sensor_type;location;lat;lon;timestamp;temperature;humidity
11043;DHT22;5574;48.786;10.120;2023-04-25T00:01:32;8.10;99.90
11043;DHT22;5574;48.786;10.120;2023-04-25T00:04:03;8.10;99.90
11043;DHT22;5574;48.786;10.120;2023-04-25T00:06:31;8.10;99.90
11043;DHT22;5574;48.786;10.120;2023-04-25T00:08:58;8.10;99.90
11043;DHT22;5574;48.786;10.120;2023-04-25T00:11:25;8.20;99.90
11043;DHT22;5574;48.786;10.120;2023-04-25T00:13:51;8.20;99.90
11043;DHT22;5574;48.786;10.120;2023-04-25T00:16:18;8.20;99.90
11043;DHT22;5574;48.786;10.120;2023-04-25T00:18:45;8.30;99.90
11043;DHT22;5574;48.786;10.120;2023-04-25T00:21:18;8.30;99.90
11043;DHT22;5574;48.786;10.120;2023-04-25T00:23:45;8.30;99.90
11043;DHT22;5574;48.786;10.120;2023-04-25T00:26:12;8.30;99.90
11043;DHT22;5574;48.786;10.120;2023-04-25T00:28:39;8.30;99.90
11043;DHT22;5574;48.786;10.120;2023-04-25T00:31:06;8.30;99.90
11043;DHT22;5574;48.786;10.120;2023-04-25T00:33:32;8.30;99.90
11043;DHT22;5574;48.786;10.120;2023-04-25T00:36:00;8.40;99.90
11043;DHT22;5574;48.786;10.120;2023-04-25T00:38:28;8.30;99.90
11043;DHT22;5574;48.786;10.120;2023-04-25T00:40:55;8.30;99.90
11043;DHT22;5574;48.786;10.120;2023-04-25T00:43:23;8.40;99.90
11043;DHT22;5574;48.786;10.120;2023-04-25T00:45:52;8.40;99.90
11043;DHT22;5574;48.786;10.120;2023-04-25T00:48:20;8.50;99.90
11043;DHT22;5574;48.786;10.120;2023-04-25T00:50:52;8.50;99.90
11043;DHT22;5574;48.786;10.120;2023-04-25T00:53:19;8.60;99.90
11043;DHT22;5574;48.786;10.120;2023-04-25T00:55:47;8.60;99.90
11043;DHT22;5574;48.786;10.120;2023-04-25T00:58:16;8.60;99.90
11043;DHT22;5574;48.786;10.120;2023-04-25T01:00:43;8.70;99.90
11043;DHT22;5574;48.786;10.120;2023-04-25T01:03:11;8.70;99.90
11043;DHT22;5574;48.786;10.120;2023-04-25T01:05:38;8.70;99.90
11043;DHT22;5574;48.786;10.120;2023-04-25T01:08:05;8.70;99.90
11043;DHT22;5574;48.786;10.120;2023-04-25T01:10:32;8.70;99.90
11043;DHT22;5574;48.786;10.120;2023-04-25T01:13:00;8.70;99.90
11043;DHT22;5574;48.786;10.120;2023-04-25T01:15:27;8.70;99.90
11043;DHT22;5574;48.786;10.120;2023-04-25T01:17:54;8.80;99.90
11043;DHT22;5574;48.786;10.120;2023-04-25T01:20:22;8.80;99.90
11043;DHT22;5574;48.786;10.120;2023-04-25T01:22:50;8.80;99.90
11043;DHT22;5574;48.786;10.120;2023-04-25T01:25:17;8.80;99.90
11043;DHT22;5574;48.786;10.120;2023-04-25T01:27:45;8.80;99.90
11043;DHT22;5574;48.786;10.120;2023-04-25T01:30:12;8.80;99.90
11043;DHT22;5574;48.786;10.120;2023-04-25T01:32:40;8.80;99.90
11043;DHT22;5574;48.786;10.120;2023-04-25T01:35:09;8.80;99.90
11043;DHT22;5574;48.786;10.120;2023-04-25T01:37:36;8.80;99.90
11043;DHT22;5574;48.786;10.120;2023-04-25T01:40:05;8.80;99.90
11043;DHT22;5574;48.786;10.120;2023-04-25T01:42:32;8.80;99.90
11043;DHT22;5574;48.786;10.120;2023-04-25T01:44:59;8.80;99.90
11043;DHT22;5574;48.786;10.120;2023-04-25T01:47:26;8.80;99.90
11043;DHT22;5574;48.786;10.120;2023-04-25T01:49:53;8.70;99.90
11043;DHT22;5574;48.786;10.120;2023-04-25T01:52:20;8.70;99.90
11043;DHT22;5574;48.786;10.120;2023-04-25T01:54:47;8.60;99.90
11043;DHT22;5574;48.786;10.120;2023-04-25T01:57:15;8.60;99.90
11043;DHT22;5574;48.786;10.120;2023-04-25T01:59:42;8.50;99.90
11043;DHT22;5574;48.786;10.120;2023-04-25T02:02:09;8.50;99.90
11043;DHT22;5574;48.786;10.120;2023-04-25T02:04:36;8.50;99.90
11043;DHT22;5574;48.786;10.120;2023-04-25T02:07:03;8.40;99.90
11043;DHT22;5574;48.786;10.120;2023-04-25T02:09:30;8.40;99.90
11043;DHT22;5574;48.786;10.120;2023-04-25T02:11:58;8.40;99.90
11043;DHT22;5574;48.786;10.120;2023-04-25T02:14:26;8.40;99.90
11043;DHT22;5574;48.786;10.120;2023-04-25T02:16:54;8.30;99.90
11043;DHT22;5574;48.786;10.120;2023-04-25T02:19:20;8.30;99.90
11043;DHT22;5574;48.786;10.120;2023-04-25T02:21:47;8.30;99.90
11043;DHT22;5574;48.786;10.120;2023-04-25T02:24:14;8.30;99.90
11043;DHT22;5574;48.786;10.120;2023-04-25T02:26:40;8.30;99.90
11043;DHT22;5574;48.786;10.120;2023-04-25T02:29:07;8.20;99.90
11043;DHT22;5574;48.786;10.120;2023-04-25T02:31:35;8.30;99.90
11043;DHT22;5574;48.786;10.120;2023-04-25T02:34:02;8.20;99.90
11043;DHT22;5574;48.786;10.120;2023-04-25T02:36:28;8.20;99.90
11043;DHT22;5574;48.786;10.120;2023-04-25T02:38:57;8.20;99.90
11043;DHT22;5574;48.786;10.120;2023-04-25T02:41:24;8.20;99.90
11043;DHT22;5574;48.786;10.120;2023-04-25T02:43:50;8.20;99.90
11043;DHT22;5574;48.786;10.120;2023-04-25T02:46:17;8.20;99.90
11043;DHT22;5574;48.786;10.120;2023-04-25T02:48:45;8.10;99.90
11043;DHT22;5574;48.786;10.120;2023-04-25T02:51:12;8.10;99.90
11043;DHT22;5574;48.786;10.120;2023-04-25T02:53:39;8.10;99.90
11043;DHT22;5574;48.786;10.120;2023-04-25T02:56:06;8.10;99.90
11043;DHT22;5574;48.786;10.120;2023-04-25T02:58:32;8.10;99.90
11043;DHT22;5574;48.786;10.120;2023-04-25T03:00:59;8.20;99.90
11043;DHT22;5574;48.786;10.120;2023-04-25T03:03:26;8.20;99.90
11043;DHT22;5574;48.786;10.120;2023-04-25T03:05:54;8.10;99.90
11043;DHT22;5574;48.786;10.120;2023-04-25T03:08:20;8.20;99.90
11043;DHT22;5574;48.786;10.120;2023-04-25T03:10:48;8.20;99.90
11043;DHT22;5574;48.786;10.120;2023-04-25T03:13:15;8.20;99.90
11043;DHT22;5574;48.786;10.120;2023-04-25T03:15:42;8.20;99.90
11043;DHT22;5574;48.786;10.120;2023-04-25T03:18:08;8.10;99.90
11043;DHT22;5574;48.786;10.120;2023-04-25T03:20:35;8.10;99.90
11043;DHT22;5574;48.786;10.120;2023-04-25T03:23:03;8.10;99.90
11043;DHT22;5574;48.786;10.120;2023-04-25T03:25:30;8.10;99.90
11043;DHT22;5574;48.786;10.120;2023-04-25T03:27:57;8.10;99.90
11043;DHT22;5574;48.786;10.120;2023-04-25T03:30:23;8.10;99.90
11043;DHT22;5574;48.786;10.120;2023-04-25T03:32:50;8.10;99.90
11043;DHT22;5574;48.786;10.120;2023-04-25T03:35:17;8.00;99.90
11043;DHT22;5574;48.786;10.120;2023-04-25T03:37:43;8.00;99.90
11043;DHT22;5574;48.786;10.120;2023-04-25T03:40:12;8.00;99.90
11043;DHT22;5574;48.786;10.120;2023-04-25T03:42:39;8.10;99.90
11043;DHT22;5574;48.786;10.120;2023-04-25T03:45:07;8.10;99.90
11043;DHT22;5574;48.786;10.120;2023-04-25T03:47:33;8.10;99.90
11043;DHT22;5574;48.786;10.120;2023-04-25T03:50:00;8.00;99.90
11043;DHT22;5574;48.786;10.120;2023-04-25T03:52:28;8.00;99.90
11043;DHT22;5574;48.786;10.120;2023-04-25T03:54:54;8.00;99.90
11043;DHT22;5574;48.786;10.120;2023-04-25T03:57:22;8.00;99.90
11043;DHT22;5574;48.786;10.120;2023-04-25T03:59:49;7.90;99.90
11043;DHT22;5574;48.786;10.120;2023-04-25T04:02:18;8.00;99.90
11043;DHT22;5574;48.786;10.120;2023-04-25T04:04:44;7.90;99.90
11043;DHT22;5574;48.786;10.120;2023-04-25T04:07:11;7.90;99.90
11043;DHT22;5574;48.786;10.120;2023-04-25T04:09:37;7.80;99.90
11043;DHT22;5574;48.786;10.120;2023-04-25T04:12:05;7.80;99.90
11043;DHT22;5574;48.786;10.120;2023-04-25T04:14:33;7.80;99.90
11043;DHT22;5574;48.786;10.120;2023-04-25T04:16:59;7.80;99.90
11043;DHT22;5574;48.786;10.120;2023-04-25T04:19:26;7.80;99.90
11043;DHT22;5574;48.786;10.120;2023-04-25T04:21:53;7.80;99.90
11043;DHT22;5574;48.786;10.120;2023-04-25T04:24:19;7.80;99.90
11043;DHT22;5574;48.786;10.120;2023-04-25T04:26:46;7.90;99.90
11043;DHT22;5574;48.786;10.120;2023-04-25T04:29:13;7.90;99.90
11043;DHT22;5574;48.786;10.120;2023-04-25T04:31:47;7.90;99.90
11043;DHT22;5574;48.786;10.120;2023-04-25T04:34:14;7.90;99.90
11043;DHT22;5574;48.786;10.120;2023-04-25T04:36:41;7.90;99.90
11043;DHT22;5574;48.786;10.120;2023-04-25T04:39:08;7.90;99.90
11043;DHT22;5574;48.786;10.120;2023-04-25T04:41:36;7.90;99.90
11043;DHT22;5574;48.786;10.120;2023-04-25T04:44:03;7.90;99.90
11043;DHT22;5574;48.786;10.120;2023-04-25T04:46:29;7.80;99.90
11043;DHT22;5574;48.786;10.120;2023-04-25T04:48:58;7.80;99.90
11043;DHT22;5574;48.786;10.120;2023-04-25T04:51:24;7.70;99.90
11043;DHT22;5574;48.786;10.120;2023-04-25T04:53:51;7.70;99.90
11043;DHT22;5574;48.786;10.120;2023-04-25T04:56:18;7.70;99.90
11043;DHT22;5574;48.786;10.120;2023-04-25T04:58:46;7.80;99.90
11043;DHT22;5574;48.786;10.120;2023-04-25T05:01:14;7.80;99.90
11043;DHT22;5574;48.786;10.120;2023-04-25T05:03:41;7.80;99.90
11043;DHT22;5574;48.786;10.120;2023-04-25T05:06:09;7.80;99.90
11043;DHT22;5574;48.786;10.120;2023-04-25T05:08:36;7.90;99.90
11043;DHT22;5574;48.786;10.120;2023-04-25T05:11:03;7.90;99.90
11043;DHT22;5574;48.786;10.120;2023-04-25T05:13:30;8.00;99.90
11043;DHT22;5574;48.786;10.120;2023-04-25T05:15:56;7.90;99.90
11043;DHT22;5574;48.786;10.120;2023-04-25T05:18:23;7.90;99.90
11043;DHT22;5574;48.786;10.120;2023-04-25T05:20:50;7.90;99.90
11043;DHT22;5574;48.786;10.120;2023-04-25T05:23:18;7.90;99.90
11043;DHT22;5574;48.786;10.120;2023-04-25T05:25:45;7.90;99.90
11043;DHT22;5574;48.786;10.120;2023-04-25T05:28:12;7.90;99.90
11043;DHT22;5574;48.786;10.120;2023-04-25T05:30:39;8.00;99.90
11043;DHT22;5574;48.786;10.120;2023-04-25T05:33:06;8.00;99.90
11043;DHT22;5574;48.786;10.120;2023-04-25T05:35:33;8.00;99.90
11043;DHT22;5574;48.786;10.120;2023-04-25T05:38:00;8.10;99.90
11043;DHT22;5574;48.786;10.120;2023-04-25T05:40:28;8.10;99.90
11043;DHT22;5574;48.786;10.120;2023-04-25T05:42:54;8.20;99.90
11043;DHT22;5574;48.786;10.120;2023-04-25T05:45:21;8.20;99.90
11043;DHT22;5574;48.786;10.120;2023-04-25T05:47:48;8.30;99.90
11043;DHT22;5574;48.786;10.120;2023-04-25T05:50:16;8.30;99.90
11043;DHT22;5574;48.786;10.120;2023-04-25T05:52:43;8.30;99.90
11043;DHT22;5574;48.786;10.120;2023-04-25T05:55:09;8.30;99.90
11043;DHT22;5574;48.786;10.120;2023-04-25T05:57:37;8.30;99.90
11043;DHT22;5574;48.786;10.120;2023-04-25T06:00:07;8.30;99.90
11043;DHT22;5574;48.786;10.120;2023-04-25T06:02:35;8.30;99.90
11043;DHT22;5574;48.786;10.120;2023-04-25T06:05:02;8.40;99.90
11043;DHT22;5574;48.786;10.120;2023-04-25T06:07:29;8.40;99.90
11043;DHT22;5574;48.786;10.120;2023-04-25T06:09:56;8.50;99.90
11043;DHT22;5574;48.786;10.120;2023-04-25T06:12:23;8.50;99.90
11043;DHT22;5574;48.786;10.120;2023-04-25T06:14:51;8.60;99.90
11043;DHT22;5574;48.786;10.120;2023-04-25T06:17:17;8.60;99.90
11043;DHT22;5574;48.786;10.120;2023-04-25T06:19:44;8.60;99.90
11043;DHT22;5574;48.786;10.120;2023-04-25T06:22:11;8.60;99.90
11043;DHT22;5574;48.786;10.120;2023-04-25T06:24:37;8.60;99.90
11043;DHT22;5574;48.786;10.120;2023-04-25T06:27:04;8.60;99.90
11043;DHT22;5574;48.786;10.120;2023-04-25T06:29:31;8.70;99.90
11043;DHT22;5574;48.786;10.120;2023-04-25T06:31:59;8.70;99.90
11043;DHT22;5574;48.786;10.120;2023-04-25T06:34:25;8.70;99.90
11043;DHT22;5574;48.786;10.120;2023-04-25T06:36:52;8.70;99.90
11043;DHT22;5574;48.786;10.120;2023-04-25T06:39:19;8.70;99.90
11043;DHT22;5574;48.786;10.120;2023-04-25T06:41:48;8.70;99.90
11043;DHT22;5574;48.786;10.120;2023-04-25T06:44:15;8.70;99.90
11043;DHT22;5574;48.786;10.120;2023-04-25T06:46:41;8.70;99.90
11043;DHT22;5574;48.786;10.120;2023-04-25T06:49:09;8.80;99.90
11043;DHT22;5574;48.786;10.120;2023-04-25T06:51:36;8.90;99.90
11043;DHT22;5574;48.786;10.120;2023-04-25T06:54:03;9.10;99.90
11043;DHT22;5574;48.786;10.120;2023-04-25T06:56:30;9.10;99.90
11043;DHT22;5574;48.786;10.120;2023-04-25T06:58:57;9.00;99.90
11043;DHT22;5574;48.786;10.120;2023-04-25T07:01:25;9.00;99.90
11043;DHT22;5574;48.786;10.120;2023-04-25T07:03:52;8.80;99.90
11043;DHT22;5574;48.786;10.120;2023-04-25T07:06:20;8.90;99.90
11043;DHT22;5574;48.786;10.120;2023-04-25T07:08:47;8.90;99.90
11043;DHT22;5574;48.786;10.120;2023-04-25T07:11:14;9.00;99.90
11043;DHT22;5574;48.786;10.120;2023-04-25T07:13:40;9.00;99.90
11043;DHT22;5574;48.786;10.120;2023-04-25T07:16:07;9.10;99.90
11043;DHT22;5574;48.786;10.120;2023-04-25T07:18:33;9.20;99.90
11043;DHT22;5574;48.786;10.120;2023-04-25T07:21:00;9.20;99.90
11043;DHT22;5574;48.786;10.120;2023-04-25T07:23:28;9.20;99.90
11043;DHT22;5574;48.786;10.120;2023-04-25T07:25:55;9.20;99.90
11043;DHT22;5574;48.786;10.120;2023-04-25T07:28:22;9.20;99.90
11043;DHT22;5574;48.786;10.120;2023-04-25T07:30:49;9.20;99.90
11043;DHT22;5574;48.786;10.120;2023-04-25T07:33:15;9.30;99.90
11043;DHT22;5574;48.786;10.120;2023-04-25T07:35:42;9.60;99.90
11043;DHT22;5574;48.786;10.120;2023-04-25T07:38:08;10.00;99.90
11043;DHT22;5574;48.786;10.120;2023-04-25T07:40:37;10.20;99.90
11043;DHT22;5574;48.786;10.120;2023-04-25T07:43:03;10.20;99.90
11043;DHT22;5574;48.786;10.120;2023-04-25T07:45:30;10.10;99.90
11043;DHT22;5574;48.786;10.120;2023-04-25T07:47:57;9.90;99.90
11043;DHT22;5574;48.786;10.120;2023-04-25T07:50:23;9.80;99.90
11043;DHT22;5574;48.786;10.120;2023-04-25T07:52:50;9.70;99.90
11043;DHT22;5574;48.786;10.120;2023-04-25T07:55:17;9.70;99.90
11043;DHT22;5574;48.786;10.120;2023-04-25T07:57:45;9.60;99.90
11043;DHT22;5574;48.786;10.120;2023-04-25T08:00:12;9.70;99.90
11043;DHT22;5574;48.786;10.120;2023-04-25T08:02:40;9.70;99.90
11043;DHT22;5574;48.786;10.120;2023-04-25T08:05:07;9.70;99.90
11043;DHT22;5574;48.786;10.120;2023-04-25T08:07:37;9.70;99.90
11043;DHT22;5574;48.786;10.120;2023-04-25T08:10:04;9.70;99.90
11043;DHT22;5574;48.786;10.120;2023-04-25T08:12:31;9.60;99.90
11043;DHT22;5574;48.786;10.120;2023-04-25T08:15:00;9.70;99.90
11043;DHT22;5574;48.786;10.120;2023-04-25T08:17:27;9.70;99.90
11043;DHT22;5574;48.786;10.120;2023-04-25T08:19:53;9.80;99.90
11043;DHT22;5574;48.786;10.120;2023-04-25T08:22:20;9.90;99.90
11043;DHT22;5574;48.786;10.120;2023-04-25T08:24:47;9.90;99.90
11043;DHT22;5574;48.786;10.120;2023-04-25T08:27:14;9.90;99.90
11043;DHT22;5574;48.786;10.120;2023-04-25T08:29:41;9.90;99.90
11043;DHT22;5574;48.786;10.120;2023-04-25T08:32:09;9.80;99.90
11043;DHT22;5574;48.786;10.120;2023-04-25T08:34:36;9.90;99.90
11043;DHT22;5574;48.786;10.120;2023-04-25T08:37:04;9.90;99.90
11043;DHT22;5574;48.786;10.120;2023-04-25T08:39:31;9.90;99.90
11043;DHT22;5574;48.786;10.120;2023-04-25T08:41:58;9.90;99.90
11043;DHT22;5574;48.786;10.120;2023-04-25T08:44:26;9.80;99.90
11043;DHT22;5574;48.786;10.120;2023-04-25T08:46:53;9.70;99.90
11043;DHT22;5574;48.786;10.120;2023-04-25T08:49:23;9.70;99.90
11043;DHT22;5574;48.786;10.120;2023-04-25T08:51:50;9.80;99.90
11043;DHT22;5574;48.786;10.120;2023-04-25T08:54:20;9.90;99.90
11043;DHT22;5574;48.786;10.120;2023-04-25T08:56:49;10.00;99.90
11043;DHT22;5574;48.786;10.120;2023-04-25T08:59:17;9.90;99.90
11043;DHT22;5574;48.786;10.120;2023-04-25T09:01:44;10.00;99.90
11043;DHT22;5574;48.786;10.120;2023-04-25T09:04:12;10.00;99.90
11043;DHT22;5574;48.786;10.120;2023-04-25T09:06:39;10.00;99.90
11043;DHT22;5574;48.786;10.120;2023-04-25T09:09:08;10.00;99.90
11043;DHT22;5574;48.786;10.120;2023-04-25T09:11:36;9.90;99.90
11043;DHT22;5574;48.786;10.120;2023-04-25T09:14:14;9.80;99.90
11043;DHT22;5574;48.786;10.120;2023-04-25T09:17:08;9.70;99.90
11043;DHT22;5574;48.786;10.120;2023-04-25T09:19:36;9.70;99.90
11043;DHT22;5574;48.786;10.120;2023-04-25T09:22:07;9.90;99.90
11043;DHT22;5574;48.786;10.120;2023-04-25T09:24:35;10.00;99.90
11043;DHT22;5574;48.786;10.120;2023-04-25T09:27:04;10.10;99.90
11043;DHT22;5574;48.786;10.120;2023-04-25T09:29:32;10.10;99.90
11043;DHT22;5574;48.786;10.120;2023-04-25T09:32:26;10.10;99.90
11043;DHT22;5574;48.786;10.120;2023-04-25T09:34:54;10.00;99.90
11043;DHT22;5574;48.786;10.120;2023-04-25T09:37:23;10.00;99.90
11043;DHT22;5574;48.786;10.120;2023-04-25T09:39:52;10.00;99.90
11043;DHT22;5574;48.786;10.120;2023-04-25T09:42:22;10.00;99.90
11043;DHT22;5574;48.786;10.120;2023-04-25T09:44:51;10.00;99.90
11043;DHT22;5574;48.786;10.120;2023-04-25T09:47:18;10.10;99.90
11043;DHT22;5574;48.786;10.120;2023-04-25T09:49:46;10.20;99.90
11043;DHT22;5574;48.786;10.120;2023-04-25T09:52:14;10.20;99.90
11043;DHT22;5574;48.786;10.120;2023-04-25T09:54:44;10.20;99.90
11043;DHT22;5574;48.786;10.120;2023-04-25T09:57:12;10.20;99.90
11043;DHT22;5574;48.786;10.120;2023-04-25T09:59:43;10.10;99.90
11043;DHT22;5574;48.786;10.120;2023-04-25T10:02:10;10.10;99.90
11043;DHT22;5574;48.786;10.120;2023-04-25T10:04:37;10.00;99.90
11043;DHT22;5574;48.786;10.120;2023-04-25T10:07:05;10.00;99.90
11043;DHT22;5574;48.786;10.120;2023-04-25T10:09:33;9.90;99.90
11043;DHT22;5574;48.786;10.120;2023-04-25T10:12:05;10.00;99.90
11043;DHT22;5574;48.786;10.120;2023-04-25T10:14:32;10.00;99.90
11043;DHT22;5574;48.786;10.120;2023-04-25T10:16:59;10.10;99.90
11043;DHT22;5574;48.786;10.120;2023-04-25T10:19:27;10.10;99.90
11043;DHT22;5574;48.786;10.120;2023-04-25T10:21:58;10.10;99.90
11043;DHT22;5574;48.786;10.120;2023-04-25T10:24:28;10.10;99.90
11043;DHT22;5574;48.786;10.120;2023-04-25T10:26:56;10.20;99.90
11043;DHT22;5574;48.786;10.120;2023-04-25T10:29:26;10.30;99.90
11043;DHT22;5574;48.786;10.120;2023-04-25T10:31:53;10.40;99.90
11043;DHT22;5574;48.786;10.120;2023-04-25T10:34:24;10.50;99.90
11043;DHT22;5574;48.786;10.120;2023-04-25T10:36:51;10.60;99.90
11043;DHT22;5574;48.786;10.120;2023-04-25T10:39:23;10.60;99.90
11043;DHT22;5574;48.786;10.120;2023-04-25T10:41:55;10.60;99.90
11043;DHT22;5574;48.786;10.120;2023-04-25T10:44:22;10.60;99.90
11043;DHT22;5574;48.786;10.120;2023-04-25T10:46:50;10.50;99.90
11043;DHT22;5574;48.786;10.120;2023-04-25T10:49:35;10.40;99.90
11043;DHT22;5574;48.786;10.120;2023-04-25T10:52:18;10.20;99.90
11043;DHT22;5574;48.786;10.120;2023-04-25T10:54:52;10.10;99.90
11043;DHT22;5574;48.786;10.120;2023-04-25T10:57:29;10.00;99.90
11043;DHT22;5574;48.786;10.120;2023-04-25T11:00:01;9.90;99.90
11043;DHT22;5574;48.786;10.120;2023-04-25T11:02:37;9.90;99.90
11043;DHT22;5574;48.786;10.120;2023-04-25T11:05:04;9.80;99.90
11043;DHT22;5574;48.786;10.120;2023-04-25T11:07:37;9.80;99.90
11043;DHT22;5574;48.786;10.120;2023-04-25T11:10:05;9.80;99.90
11043;DHT22;5574;48.786;10.120;2023-04-25T11:12:32;9.80;99.90
11043;DHT22;5574;48.786;10.120;2023-04-25T11:15:00;9.80;99.90
11043;DHT22;5574;48.786;10.120;2023-04-25T11:17:29;9.80;99.90
11043;DHT22;5574;48.786;10.120;2023-04-25T11:19:57;9.70;99.90
11043;DHT22;5574;48.786;10.120;2023-04-25T11:22:24;9.60;99.90
11043;DHT22;5574;48.786;10.120;2023-04-25T11:24:52;9.60;99.90
11043;DHT22;5574;48.786;10.120;2023-04-25T11:27:19;9.60;99.90
11043;DHT22;5574;48.786;10.120;2023-04-25T11:29:47;9.60;99.90
11043;DHT22;5574;48.786;10.120;2023-04-25T11:32:15;9.70;99.90
11043;DHT22;5574;48.786;10.120;2023-04-25T11:34:43;9.80;99.90
11043;DHT22;5574;48.786;10.120;2023-04-25T11:37:12;9.90;99.90
11043;DHT22;5574;48.786;10.120;2023-04-25T11:39:43;9.90;99.90
11043;DHT22;5574;48.786;10.120;2023-04-25T11:42:11;10.00;99.90
11043;DHT22;5574;48.786;10.120;2023-04-25T11:44:38;10.10;99.90
11043;DHT22;5574;48.786;10.120;2023-04-25T11:47:05;10.00;99.90
11043;DHT22;5574;48.786;10.120;2023-04-25T11:49:32;10.10;99.90
11043;DHT22;5574;48.786;10.120;2023-04-25T11:52:00;10.20;99.90
11043;DHT22;5574;48.786;10.120;2023-04-25T11:54:28;10.20;99.90
11043;DHT22;5574;48.786;10.120;2023-04-25T11:56:55;10.30;99.90
11043;DHT22;5574;48.786;10.120;2023-04-25T11:59:24;10.40;99.90
11043;DHT22;5574;48.786;10.120;2023-04-25T12:01:51;10.50;99.90
11043;DHT22;5574;48.786;10.120;2023-04-25T12:04:19;10.60;99.90
11043;DHT22;5574;48.786;10.120;2023-04-25T12:06:48;10.60;99.90
11043;DHT22;5574;48.786;10.120;2023-04-25T12:09:15;10.60;99.90
11043;DHT22;5574;48.786;10.120;2023-04-25T12:11:45;10.60;99.90
11043;DHT22;5574;48.786;10.120;2023-04-25T12:14:19;10.40;99.90
11043;DHT22;5574;48.786;10.120;2023-04-25T12:16:48;10.20;99.90
11043;DHT22;5574;48.786;10.120;2023-04-25T12:19:15;10.10;99.90
11043;DHT22;5574;48.786;10.120;2023-04-25T12:21:42;10.10;99.90
11043;DHT22;5574;48.786;10.120;2023-04-25T12:24:13;10.00;99.90
11043;DHT22;5574;48.786;10.120;2023-04-25T12:26:52;9.90;99.90
11043;DHT22;5574;48.786;10.120;2023-04-25T12:29:21;9.80;99.90
11043;DHT22;5574;48.786;10.120;2023-04-25T12:31:49;9.70;99.90
11043;DHT22;5574;48.786;10.120;2023-04-25T12:34:17;9.70;99.90
11043;DHT22;5574;48.786;10.120;2023-04-25T12:36:43;9.60;99.90
11043;DHT22;5574;48.786;10.120;2023-04-25T12:39:15;9.50;99.90
11043;DHT22;5574;48.786;10.120;2023-04-25T12:41:42;9.40;99.90
11043;DHT22;5574;48.786;10.120;2023-04-25T12:44:10;9.20;99.90
11043;DHT22;5574;48.786;10.120;2023-04-25T12:46:37;9.00;99.90
11043;DHT22;5574;48.786;10.120;2023-04-25T12:49:04;8.90;99.90
11043;DHT22;5574;48.786;10.120;2023-04-25T12:51:32;8.70;99.90
11043;DHT22;5574;48.786;10.120;2023-04-25T12:53:59;8.80;99.90
11043;DHT22;5574;48.786;10.120;2023-04-25T12:56:26;8.80;99.90
11043;DHT22;5574;48.786;10.120;2023-04-25T12:58:52;8.90;99.90
11043;DHT22;5574;48.786;10.120;2023-04-25T13:01:21;8.90;99.90
11043;DHT22;5574;48.786;10.120;2023-04-25T13:03:47;9.00;99.90
11043;DHT22;5574;48.786;10.120;2023-04-25T13:06:14;9.00;99.90
11043;DHT22;5574;48.786;10.120;2023-04-25T13:08:41;9.10;99.90
11043;DHT22;5574;48.786;10.120;2023-04-25T13:11:08;9.10;99.90
11043;DHT22;5574;48.786;10.120;2023-04-25T13:13:35;9.20;99.90
11043;DHT22;5574;48.786;10.120;2023-04-25T13:16:02;9.20;99.90
11043;DHT22;5574;48.786;10.120;2023-04-25T13:18:31;9.30;99.90
11043;DHT22;5574;48.786;10.120;2023-04-25T13:20:59;9.30;99.90
11043;DHT22;5574;48.786;10.120;2023-04-25T13:23:27;9.50;99.90
11043;DHT22;5574;48.786;10.120;2023-04-25T13:25:54;9.60;99.90
11043;DHT22;5574;48.786;10.120;2023-04-25T13:28:23;9.60;99.90
11043;DHT22;5574;48.786;10.120;2023-04-25T13:30:50;9.60;99.90
11043;DHT22;5574;48.786;10.120;2023-04-25T13:33:17;9.80;99.90
11043;DHT22;5574;48.786;10.120;2023-04-25T13:35:45;9.80;99.90
11043;DHT22;5574;48.786;10.120;2023-04-25T13:38:19;10.00;99.90
11043;DHT22;5574;48.786;10.120;2023-04-25T13:40:46;10.00;99.90
11043;DHT22;5574;48.786;10.120;2023-04-25T13:43:12;10.00;99.90
11043;DHT22;5574;48.786;10.120;2023-04-25T13:45:39;10.00;99.90
11043;DHT22;5574;48.786;10.120;2023-04-25T13:48:06;10.00;99.90
11043;DHT22;5574;48.786;10.120;2023-04-25T13:50:32;10.20;99.90
11043;DHT22;5574;48.786;10.120;2023-04-25T13:53:00;10.20;99.90
11043;DHT22;5574;48.786;10.120;2023-04-25T13:55:27;10.30;99.90
11043;DHT22;5574;48.786;10.120;2023-04-25T13:57:54;10.30;99.90
11043;DHT22;5574;48.786;10.120;2023-04-25T14:00:20;10.40;99.90
11043;DHT22;5574;48.786;10.120;2023-04-25T14:02:47;10.40;99.90
11043;DHT22;5574;48.786;10.120;2023-04-25T14:05:14;10.50;99.90
11043;DHT22;5574;48.786;10.120;2023-04-25T14:07:41;10.50;99.90
11043;DHT22;5574;48.786;10.120;2023-04-25T14:10:10;10.40;99.90
11043;DHT22;5574;48.786;10.120;2023-04-25T14:12:36;10.60;99.90
11043;DHT22;5574;48.786;10.120;2023-04-25T14:15:04;10.80;99.90
11043;DHT22;5574;48.786;10.120;2023-04-25T14:17:31;10.70;99.90
11043;DHT22;5574;48.786;10.120;2023-04-25T14:19:57;10.70;99.90
11043;DHT22;5574;48.786;10.120;2023-04-25T14:22:24;10.70;99.90
11043;DHT22;5574;48.786;10.120;2023-04-25T14:24:51;10.80;99.90
11043;DHT22;5574;48.786;10.120;2023-04-25T14:27:19;10.80;99.90
11043;DHT22;5574;48.786;10.120;2023-04-25T14:29:46;10.80;99.90
11043;DHT22;5574;48.786;10.120;2023-04-25T14:32:13;10.80;99.90
11043;DHT22;5574;48.786;10.120;2023-04-25T14:34:39;10.70;99.90
11043;DHT22;5574;48.786;10.120;2023-04-25T14:37:06;10.30;99.90
11043;DHT22;5574;48.786;10.120;2023-04-25T14:39:33;9.90;99.90
11043;DHT22;5574;48.786;10.120;2023-04-25T14:41:59;9.70;99.90
11043;DHT22;5574;48.786;10.120;2023-04-25T14:44:28;9.50;99.90
11043;DHT22;5574;48.786;10.120;2023-04-25T14:46:55;9.30;99.90
11043;DHT22;5574;48.786;10.120;2023-04-25T14:49:22;9.20;99.90
11043;DHT22;5574;48.786;10.120;2023-04-25T14:51:48;9.10;99.90
11043;DHT22;5574;48.786;10.120;2023-04-25T14:54:15;9.00;99.90
11043;DHT22;5574;48.786;10.120;2023-04-25T14:56:42;8.90;99.90
11043;DHT22;5574;48.786;10.120;2023-04-25T14:59:09;8.80;99.90
11043;DHT22;5574;48.786;10.120;2023-04-25T15:01:37;8.70;99.90
11043;DHT22;5574;48.786;10.120;2023-04-25T15:04:03;8.70;99.90
11043;DHT22;5574;48.786;10.120;2023-04-25T15:06:30;8.70;99.90
11043;DHT22;5574;48.786;10.120;2023-04-25T15:08:57;8.70;99.90
11043;DHT22;5574;48.786;10.120;2023-04-25T15:11:24;8.70;99.90
11043;DHT22;5574;48.786;10.120;2023-04-25T15:13:50;8.60;99.90
11043;DHT22;5574;48.786;10.120;2023-04-25T15:16:17;8.60;99.90
11043;DHT22;5574;48.786;10.120;2023-04-25T15:18:45;8.60;99.90
11043;DHT22;5574;48.786;10.120;2023-04-25T15:21:12;8.60;99.90
11043;DHT22;5574;48.786;10.120;2023-04-25T15:23:39;8.60;99.90
11043;DHT22;5574;48.786;10.120;2023-04-25T15:26:05;8.50;99.90
11043;DHT22;5574;48.786;10.120;2023-04-25T15:28:32;8.50;99.90
11043;DHT22;5574;48.786;10.120;2023-04-25T15:31:00;8.30;99.90
11043;DHT22;5574;48.786;10.120;2023-04-25T15:33:27;8.30;99.90
11043;DHT22;5574;48.786;10.120;2023-04-25T15:35:55;8.20;99.90
11043;DHT22;5574;48.786;10.120;2023-04-25T15:38:23;8.20;99.90
11043;DHT22;5574;48.786;10.120;2023-04-25T15:40:49;8.20;99.90
11043;DHT22;5574;48.786;10.120;2023-04-25T15:43:18;8.20;99.90
11043;DHT22;5574;48.786;10.120;2023-04-25T15:45:44;8.20;99.90